Everton, Missouri
Current Conditions -  °F | °C
As of 1:52 AM on Thursday 18 Dec 2014 (Local Time) from KSGF Reporting Station
Haze Haze  
Wind Chill: 25°   Ceiling: 600
Heat Index: 33°   Visibility: 4mi
Dew Point: 31°   Wind: 9mph
Humidity: 92%   Direction: 140°SE
Pressure: 30.17"   Gusts: NA
Location:  37.34°N, 93.7°W
Report Text: KSGF 180752Z 14008KT 4SM BR OVC006 01/M01 A3017 RMK AO2 UPE02 SLP226 P0000 T00061006
Loading
Personal Weather Stations






























Interactive Weather Map New forecast layout! Learn more

10-Day Weather Forecast

Advertisements
Track Severe Weather on mobile